Terminal Aerodrome Forecast
Issued by NWS Pocatello, ID

Current Version | Previous Version | Text Only | Print | Product List | Glossary On
Versions: 1 2 3 4 5 6 7 8 9 10 11 12
700
FTUS45 KPIH 042320
TAFBYI
TAF
KBYI 042320Z 0500/0524 18010KT P6SM BKN200
     FM050400 13005KT P6SM BKN200
     FM052000 16010KT P6SM SCT080 BKN200=

USA.gov is the U.S. government's official web portal to all federal, state and local government web resources and services.